createdAt,value
2019-05-06T00:01:01.812Z,4.00
2019-05-06T00:04:06.317Z,4.50
2019-05-06T00:07:10.762Z,5.10
2019-05-06T00:10:31.360Z,4.40
2019-05-06T00:13:35.797Z,4.97
2019-05-06T00:16:40.517Z,4.53
2019-05-06T00:19:45.023Z,4.60
2019-05-06T00:22:50.529Z,4.37
2019-05-06T00:25:56.613Z,4.00
2019-05-06T00:29:04.465Z,4.83
2019-05-06T00:32:09.391Z,4.73
2019-05-06T00:35:14.239Z,5.57
2019-05-06T00:38:18.725Z,5.20
2019-05-06T00:41:24.864Z,4.47
2019-05-06T00:44:29.326Z,5.30
2019-05-06T00:47:34.179Z,4.83
2019-05-06T00:50:38.903Z,4.53
2019-05-06T00:54:04.154Z,5.10
2019-05-06T00:57:08.949Z,5.47
2019-05-06T01:00:17.563Z,5.40
2019-05-06T01:03:23.940Z,5.47
2019-05-06T01:06:28.161Z,5.53
2019-05-06T01:09:35.137Z,5.37
2019-05-06T01:12:43.445Z,5.70
2019-05-06T01:15:47.676Z,5.27
2019-05-06T01:18:54.246Z,5.93
2019-05-06T01:21:58.887Z,6.00
2019-05-06T01:25:03.939Z,5.87
2019-05-06T01:28:08.614Z,5.30
2019-05-06T01:31:13.995Z,6.07
2019-05-06T01:34:18.598Z,6.10
2019-05-06T01:37:24.023Z,6.13
2019-05-06T01:40:30.834Z,5.67
2019-05-06T01:43:36.921Z,6.40
2019-05-06T01:46:41.360Z,5.73
2019-05-06T01:49:46.080Z,6.47
2019-05-06T01:52:50.900Z,6.20
2019-05-06T01:55:55.627Z,6.23
2019-05-06T01:59:00.061Z,6.70
2019-05-06T02:02:05.709Z,5.83
2019-05-06T02:05:10.848Z,6.27
2019-05-06T02:08:15.574Z,6.67
2019-05-06T02:11:20.091Z,6.47
2019-05-06T02:14:24.833Z,6.80
2019-05-06T02:17:29.270Z,6.33
2019-05-06T02:20:35.621Z,7.20
2019-05-06T02:23:41.705Z,6.33
2019-05-06T02:26:46.455Z,6.83
2019-05-06T02:29:56.300Z,6.90
2019-05-06T02:33:11.524Z,6.53
2019-05-06T02:36:17.929Z,7.20
2019-05-06T02:39:23.502Z,6.73
2019-05-06T02:42:28.411Z,9.93
2019-05-06T02:45:33.687Z,8.50
2019-05-06T02:48:56.203Z,7.20
2019-05-06T02:52:03.020Z,8.00
2019-05-06T02:55:08.314Z,7.97
2019-05-06T02:58:14.840Z,9.37
2019-05-06T03:01:18.912Z,8.30
2019-05-06T03:04:23.722Z,8.00
2019-05-06T03:07:28.271Z,9.57
2019-05-06T03:10:33.041Z,9.80
2019-05-06T03:13:37.822Z,9.13
2019-05-06T03:16:43.918Z,10.70
2019-05-06T03:19:52.699Z,8.90
2019-05-06T03:22:58.367Z,10.83
2019-05-06T03:26:05.978Z,10.70
2019-05-06T03:29:09.569Z,10.90
2019-05-06T03:32:16.611Z,10.87
2019-05-06T03:35:36.287Z,11.47
2019-05-06T03:38:27.238Z,10.87
2019-05-06T03:41:33.854Z,10.63
2019-05-06T03:44:39.485Z,12.10
2019-05-06T03:47:54.560Z,11.07
2019-05-06T03:50:59.374Z,11.87
2019-05-06T03:54:05.377Z,11.63
2019-05-06T03:57:09.856Z,11.97
2019-05-06T04:00:16.282Z,12.17
2019-05-06T04:03:33.764Z,12.87
2019-05-06T04:06:28.668Z,11.23
2019-05-06T04:09:36.945Z,11.77
2019-05-06T04:12:40.171Z,12.07
2019-05-06T04:16:04.150Z,12.27
2019-05-06T04:19:18.987Z,11.73
2019-05-06T04:22:34.703Z,13.00
2019-05-06T04:25:44.024Z,12.10
2019-05-06T04:28:48.467Z,12.47
2019-05-06T04:31:53.975Z,11.40
2019-05-06T04:34:59.533Z,12.27
2019-05-06T04:38:04.609Z,12.70
2019-05-06T04:41:09.106Z,13.53
2019-05-06T04:44:14.161Z,13.63
2019-05-06T04:47:19.008Z,13.27
2019-05-06T04:50:24.374Z,13.37
2019-05-06T04:53:29.082Z,13.07
2019-05-06T04:56:34.659Z,13.87
2019-05-06T04:59:39.102Z,12.60
2019-05-06T05:02:46.437Z,13.20
2019-05-06T05:05:52.885Z,13.33
2019-05-06T05:08:56.846Z,13.03
2019-05-06T05:12:08.997Z,13.37
2019-05-06T05:15:16.097Z,13.97
2019-05-06T05:18:25.173Z,12.63
2019-05-06T05:21:32.148Z,12.97
2019-05-06T05:24:37.588Z,12.60
2019-05-06T05:27:42.772Z,12.97
2019-05-06T05:30:47.359Z,12.93
2019-05-06T05:33:52.664Z,12.40
2019-05-06T05:36:57.248Z,12.50
2019-05-06T05:40:03.110Z,13.50
2019-05-06T05:43:13.049Z,14.00
2019-05-06T05:46:17.495Z,13.00
2019-05-06T05:49:24.634Z,13.17
2019-05-06T05:52:29.193Z,14.00
2019-05-06T05:55:34.077Z,14.30
2019-05-06T05:58:38.529Z,14.70
2019-05-06T06:01:43.553Z,13.03
2019-05-06T06:04:56.850Z,12.37
2019-05-06T06:07:55.290Z,13.23
2019-05-06T06:11:01.434Z,12.67
2019-05-06T06:14:07.647Z,13.93
2019-05-06T06:17:16.728Z,13.03
2019-05-06T06:20:38.685Z,13.10
2019-05-06T06:23:45.138Z,12.47
2019-05-06T06:26:51.958Z,12.73
2019-05-06T06:29:56.421Z,13.57
2019-05-06T06:33:02.543Z,12.93
2019-05-06T06:36:08.822Z,13.70
2019-05-06T06:39:14.901Z,12.13
2019-05-06T06:42:19.413Z,12.33
2019-05-06T06:45:24.209Z,13.50
2019-05-06T06:48:29.012Z,12.53
2019-05-06T06:51:33.777Z,12.90
2019-05-06T06:54:38.204Z,12.53
2019-05-06T06:57:56.575Z,12.37
2019-05-06T07:01:03.136Z,12.80
2019-05-06T07:04:11.189Z,13.07
2019-05-06T07:07:16.757Z,12.27
2019-05-06T07:10:42.906Z,14.97
2019-05-06T07:13:53.164Z,12.57
2019-05-06T07:16:57.676Z,10.93
2019-05-06T07:20:18.921Z,10.97
2019-05-06T07:23:32.685Z,10.47
2019-05-06T07:26:48.102Z,10.20
2019-05-06T07:29:52.552Z,10.40
2019-05-06T07:32:56.997Z,11.27
2019-05-06T07:36:02.210Z,10.67
2019-05-06T07:39:08.814Z,9.97
2019-05-06T07:42:22.722Z,10.57
2019-05-06T07:45:32.915Z,11.03
2019-05-06T07:48:37.445Z,10.77
2019-05-06T07:51:42.026Z,10.93
2019-05-06T07:54:46.897Z,10.03
2019-05-06T07:57:52.540Z,9.77
2019-05-06T08:00:57.070Z,10.30
2019-05-06T08:04:02.570Z,10.07
2019-05-06T08:07:07.456Z,10.23
2019-05-06T08:10:13.563Z,10.33
2019-05-06T08:13:18.452Z,9.27
2019-05-06T08:16:23.362Z,8.50
2019-05-06T08:19:27.807Z,8.87
2019-05-06T08:22:45.859Z,8.73
2019-05-06T08:25:52.968Z,8.03
2019-05-06T08:28:57.840Z,8.37
2019-05-06T08:32:02.990Z,7.87
2019-05-06T08:35:10.037Z,7.50
2019-05-06T08:38:14.184Z,8.67
2019-05-06T08:41:18.621Z,8.23
2019-05-06T08:44:23.373Z,8.33
2019-05-06T08:47:28.210Z,8.93
2019-05-06T08:50:46.185Z,8.43
2019-05-06T08:53:53.330Z,8.20
2019-05-06T08:56:58.108Z,8.27
2019-05-06T09:00:03.470Z,9.07
2019-05-06T09:03:08.122Z,9.07
2019-05-06T09:06:26.881Z,8.53
2019-05-06T09:09:19.038Z,8.67
2019-05-06T09:12:23.480Z,7.83
2019-05-06T09:15:27.912Z,8.10
2019-05-06T09:18:32.942Z,8.53
2019-05-06T09:21:37.525Z,7.30
2019-05-06T09:24:42.727Z,7.93
2019-05-06T09:27:47.333Z,7.50
2019-05-06T09:31:02.388Z,7.37
2019-05-06T09:34:08.469Z,7.50
2019-05-06T09:37:14.840Z,7.47
2019-05-06T09:40:19.762Z,7.77
2019-05-06T09:43:24.208Z,6.33
2019-05-06T09:46:28.638Z,6.30
2019-05-06T09:49:34.996Z,7.30
2019-05-06T09:52:42.507Z,7.40
2019-05-06T09:55:45.877Z,6.90
2019-05-06T09:58:52.765Z,6.60
2019-05-06T10:01:56.779Z,7.87
2019-05-06T10:05:03.659Z,7.23
2019-05-06T10:08:07.407Z,7.17
2019-05-06T10:11:11.913Z,6.77
2019-05-06T10:14:16.371Z,7.60
2019-05-06T10:17:21.140Z,7.37
2019-05-06T10:20:25.599Z,6.73
2019-05-06T10:23:32.636Z,6.13
2019-05-06T10:26:38.205Z,7.13
2019-05-06T10:29:47.247Z,7.03
2019-05-06T10:32:56.260Z,7.17
2019-05-06T10:36:04.592Z,6.63
2019-05-06T10:39:12.686Z,6.27
2019-05-06T10:42:23.079Z,6.43
2019-05-06T10:45:32.393Z,6.10
2019-05-06T10:48:36.539Z,7.17
2019-05-06T10:51:53.006Z,6.27
2019-05-06T10:54:57.633Z,6.03
2019-05-06T10:58:02.751Z,7.17
2019-05-06T11:01:09.215Z,6.60
2019-05-06T11:04:13.664Z,7.40
2019-05-06T11:07:29.330Z,7.00
2019-05-06T11:10:29.554Z,6.57
2019-05-06T11:13:32.259Z,7.03
2019-05-06T11:16:37.212Z,7.40
2019-05-06T11:19:42.778Z,7.43
2019-05-06T11:22:47.703Z,6.60
2019-05-06T11:25:52.747Z,6.60
2019-05-06T11:28:58.920Z,6.77
2019-05-06T11:32:05.008Z,7.47
2019-05-06T11:35:22.705Z,7.63
2019-05-06T11:38:26.415Z,8.50
2019-05-06T11:41:32.269Z,8.60
2019-05-06T11:44:37.088Z,9.33
2019-05-06T11:47:42.174Z,9.43
2019-05-06T11:50:48.698Z,8.80
2019-05-06T11:53:54.195Z,8.80
2019-05-06T11:56:58.914Z,8.00
2019-05-06T12:00:04.203Z,8.40
2019-05-06T12:03:08.642Z,7.43
2019-05-06T12:06:13.300Z,6.27
2019-05-06T12:09:17.708Z,6.73
2019-05-06T12:12:23.328Z,6.13
2019-05-06T12:15:27.977Z,6.73
2019-05-06T12:18:32.717Z,6.10
2019-05-06T12:21:37.167Z,7.27
2019-05-06T12:24:43.108Z,7.20
2019-05-06T12:27:47.882Z,7.00
2019-05-06T12:30:52.662Z,8.23
2019-05-06T12:33:57.111Z,6.07
2019-05-06T12:37:03.198Z,7.17
2019-05-06T12:40:08.180Z,7.47
2019-05-06T12:43:24.366Z,6.63
2019-05-06T12:46:43.042Z,6.40
2019-05-06T12:49:47.641Z,6.40
2019-05-06T12:52:52.703Z,7.17
2019-05-06T12:55:57.500Z,7.60
2019-05-06T12:59:02.281Z,7.47
2019-05-06T13:02:07.203Z,6.40
2019-05-06T13:05:12.612Z,6.43
2019-05-06T13:08:20.173Z,6.90
2019-05-06T13:11:23.561Z,5.43
2019-05-06T13:14:28.000Z,4.77
2019-05-06T13:17:32.991Z,5.63
2019-05-06T13:20:38.297Z,5.27
2019-05-06T13:23:44.388Z,7.23
2019-05-06T13:26:48.840Z,5.80
2019-05-06T13:29:53.356Z,6.33
2019-05-06T13:33:13.581Z,5.80
2019-05-06T13:36:17.711Z,6.37
2019-05-06T13:39:23.724Z,6.40
2019-05-06T13:42:30.010Z,6.77
2019-05-06T13:45:35.556Z,6.87
2019-05-06T13:48:57.705Z,6.57
2019-05-06T13:52:04.623Z,5.40
2019-05-06T13:55:09.537Z,5.17
2019-05-06T13:58:14.246Z,5.13
2019-05-06T14:01:29.120Z,5.00
2019-05-06T14:04:33.840Z,5.00
2019-05-06T14:07:38.676Z,5.03
2019-05-06T14:10:43.402Z,4.70
2019-05-06T14:13:47.855Z,5.23
2019-05-06T14:16:53.399Z,5.10
2019-05-06T14:19:58.314Z,5.03
2019-05-06T14:23:03.045Z,4.57
2019-05-06T14:26:22.897Z,4.73
2019-05-06T14:29:28.436Z,4.57
2019-05-06T14:32:33.000Z,5.10
2019-05-06T14:35:37.408Z,5.70
2019-05-06T14:38:42.944Z,5.77
2019-05-06T14:41:49.234Z,5.80
2019-05-06T14:44:53.687Z,6.53
2019-05-06T14:47:58.617Z,5.57
2019-05-06T14:51:03.301Z,5.33
2019-05-06T14:54:07.746Z,5.43
2019-05-06T14:57:13.830Z,9.97
2019-05-06T15:00:22.922Z,5.00
2019-05-06T15:03:27.072Z,4.70
2019-05-06T15:06:33.093Z,4.50
2019-05-06T15:09:53.609Z,5.53
2019-05-06T15:12:44.557Z,4.63
2019-05-06T15:15:49.272Z,4.43
2019-05-06T15:18:53.713Z,4.53
2019-05-06T15:21:58.167Z,5.23
2019-05-06T15:25:02.615Z,4.80
2019-05-06T15:28:07.066Z,4.60
2019-05-06T15:31:15.578Z,3.87
2019-05-06T15:34:38.339Z,4.83
2019-05-06T15:37:55.952Z,5.00
2019-05-06T15:41:00.630Z,4.40
2019-05-06T15:44:05.350Z,4.70
2019-05-06T15:47:10.171Z,4.93
2019-05-06T15:50:15.766Z,4.30
2019-05-06T15:53:22.314Z,4.47
2019-05-06T15:56:26.738Z,4.47
2019-05-06T15:59:33.594Z,4.03
2019-05-06T16:02:38.224Z,3.80
2019-05-06T16:05:43.712Z,3.97
2019-05-06T16:08:48.384Z,3.90
2019-05-06T16:11:53.535Z,4.20
2019-05-06T16:14:58.595Z,4.30
2019-05-06T16:18:04.519Z,4.50
2019-05-06T16:21:09.251Z,4.77
2019-05-06T16:24:34.614Z,4.20
2019-05-06T16:27:38.389Z,3.80
2019-05-06T16:30:43.124Z,3.80
2019-05-06T16:33:47.558Z,4.67
2019-05-06T16:36:52.004Z,3.70
2019-05-06T16:39:56.922Z,4.27
2019-05-06T16:43:02.104Z,5.80
2019-05-06T16:46:06.666Z,4.50
2019-05-06T16:49:14.000Z,4.17
2019-05-06T16:52:17.987Z,5.00
2019-05-06T16:55:40.343Z,4.70
2019-05-06T16:58:47.411Z,4.97
2019-05-06T17:01:52.381Z,5.00
2019-05-06T17:05:15.157Z,4.80
2019-05-06T17:08:20.037Z,5.07
2019-05-06T17:11:30.455Z,4.50
2019-05-06T17:14:32.177Z,4.17
2019-05-06T17:17:43.712Z,4.07
2019-05-06T17:20:45.231Z,4.60
2019-05-06T17:23:52.066Z,4.80
2019-05-06T17:26:56.523Z,3.63
2019-05-06T17:30:02.749Z,3.63
2019-05-06T17:33:17.880Z,4.50
2019-05-06T17:36:24.525Z,4.00
2019-05-06T17:39:29.253Z,3.87
2019-05-06T17:42:33.727Z,4.00
2019-05-06T17:45:40.050Z,4.03
2019-05-06T17:48:54.587Z,3.67
2019-05-06T17:52:06.504Z,4.57
2019-05-06T17:55:11.871Z,4.10
2019-05-06T17:58:17.123Z,4.10
2019-05-06T18:01:36.588Z,3.80
2019-05-06T18:04:43.081Z,4.57
2019-05-06T18:07:48.086Z,3.73
2019-05-06T18:10:52.823Z,4.43
2019-05-06T18:13:57.547Z,4.47
2019-05-06T18:17:03.596Z,4.67
2019-05-06T18:20:08.767Z,4.97
2019-05-06T18:23:13.477Z,4.20
2019-05-06T18:26:18.839Z,3.90
2019-05-06T18:29:23.284Z,4.47
2019-05-06T18:32:28.194Z,4.90
2019-05-06T18:35:32.934Z,3.80
2019-05-06T18:38:37.747Z,3.80
2019-05-06T18:41:42.495Z,4.20
2019-05-06T18:44:46.930Z,3.97
2019-05-06T18:47:53.153Z,4.07
2019-05-06T18:50:57.703Z,3.90
2019-05-06T18:54:03.070Z,4.10
2019-05-06T18:57:07.972Z,4.47
2019-05-06T19:00:13.421Z,4.70
2019-05-06T19:03:18.148Z,4.30
2019-05-06T19:06:23.258Z,5.10
2019-05-06T19:09:35.453Z,4.70
2019-05-06T19:12:41.495Z,5.10
2019-05-06T19:15:46.099Z,5.13
2019-05-06T19:18:52.260Z,5.23
2019-05-06T19:21:56.993Z,5.23
2019-05-06T19:25:02.773Z,5.17
2019-05-06T19:28:07.559Z,5.47
2019-05-06T19:31:12.450Z,4.80
2019-05-06T19:34:16.917Z,5.20
2019-05-06T19:37:23.330Z,5.10
2019-05-06T19:40:27.973Z,5.00
2019-05-06T19:43:32.947Z,5.77
2019-05-06T19:46:37.443Z,5.80
2019-05-06T19:49:42.736Z,5.40
2019-05-06T19:52:47.186Z,5.20
2019-05-06T19:55:52.998Z,5.83
2019-05-06T19:58:57.846Z,5.40
2019-05-06T20:02:02.371Z,5.67
2019-05-06T20:05:13.151Z,5.50
2019-05-06T20:08:32.636Z,5.10
2019-05-06T20:11:39.008Z,6.27
2019-05-06T20:14:43.445Z,5.90
2019-05-06T20:17:47.874Z,6.17
2019-05-06T20:20:52.837Z,5.77
2019-05-06T20:23:57.442Z,6.37
2019-05-06T20:27:02.743Z,6.43
2019-05-06T20:30:07.805Z,6.27
2019-05-06T20:33:12.603Z,7.30
2019-05-06T20:36:17.447Z,6.30
2019-05-06T20:39:23.022Z,7.30
2019-05-06T20:42:27.644Z,7.97
2019-05-06T20:45:35.250Z,7.20
2019-05-06T20:48:38.827Z,7.17
2019-05-06T20:51:43.269Z,7.70
2019-05-06T20:54:47.981Z,8.23
2019-05-06T20:57:53.004Z,7.07
2019-05-06T21:00:57.633Z,8.03
2019-05-06T21:04:02.331Z,8.20
2019-05-06T21:08:04.494Z,8.87
2019-05-06T21:11:22.008Z,9.57
2019-05-06T21:14:15.422Z,10.27
2019-05-06T21:17:20.234Z,9.63
2019-05-06T21:20:24.665Z,10.33
2019-05-06T21:23:29.401Z,10.13
2019-05-06T21:26:33.838Z,9.43
2019-05-06T21:29:38.680Z,8.67
2019-05-06T21:32:43.096Z,8.90
2019-05-06T21:35:52.446Z,7.80
2019-05-06T21:38:57.469Z,8.20
2019-05-06T21:42:07.207Z,7.37
2019-05-06T21:45:12.726Z,7.87
2019-05-06T21:48:17.341Z,8.50
2019-05-06T21:51:22.252Z,8.30
2019-05-06T21:54:26.784Z,7.57
2019-05-06T21:57:31.470Z,7.93
2019-05-06T22:00:53.339Z,7.57
2019-05-06T22:03:57.853Z,7.63
2019-05-06T22:07:03.092Z,7.50
2019-05-06T22:10:09.380Z,7.67
2019-05-06T22:13:14.668Z,6.97
2019-05-06T22:16:19.616Z,7.07
2019-05-06T22:19:24.049Z,6.57
2019-05-06T22:22:32.905Z,7.43
2019-05-06T22:25:37.597Z,7.17
2019-05-06T22:28:42.640Z,7.30
2019-05-06T22:31:47.570Z,7.77
2019-05-06T22:34:52.301Z,7.67
2019-05-06T22:37:56.741Z,8.13
2019-05-06T22:41:02.423Z,7.43
2019-05-06T22:44:13.815Z,6.90
2019-05-06T22:47:13.370Z,6.77
2019-05-06T22:50:17.951Z,7.20
2019-05-06T22:53:24.848Z,7.50
2019-05-06T22:56:28.546Z,6.53
2019-05-06T22:59:33.135Z,7.10
2019-05-06T23:02:39.155Z,7.37
2019-05-06T23:05:43.926Z,7.70
2019-05-06T23:08:48.335Z,7.77
2019-05-06T23:11:52.778Z,6.80
2019-05-06T23:14:57.492Z,7.07
2019-05-06T23:18:02.371Z,6.87
2019-05-06T23:21:07.249Z,7.20
2019-05-06T23:24:13.129Z,6.70
2019-05-06T23:27:17.812Z,6.80
2019-05-06T23:30:23.616Z,6.73
2019-05-06T23:33:29.044Z,6.90
2019-05-06T23:37:02.836Z,6.20
2019-05-06T23:41:02.667Z,6.60
2019-05-06T23:45:02.604Z,6.90
2019-05-06T23:49:01.992Z,7.90
2019-05-06T23:53:02.977Z,7.27
2019-05-06T23:56:39.948Z,7.17
2019-05-06T23:59:44.681Z,7.20
